Time;durP1;ratioP1;P1;durP2;ratioP2;P2;SDS_P1;SDS_P2;PMS_P1;PMS_P2;Temp;Humidity;BMP_temperature;BMP_pressure;BME280_temperature;BME280_humidity;BME280_pressure;Samples;Min_cycle;Max_cycle;Signal;HPM_P1;HPM_P2
2022/01/27 05:08:50;;;;;;;;;;;;;;;1.30;84.97;98220.25;4249592;27;10278;-63
2022/01/27 05:11:08;;;;;;;;;;;;;;;1.39;84.83;98217.06;4250147;27;5597;-63
2022/01/27 05:13:14;;;;;;;;;;;;;;;1.43;84.67;98224.56;4250088;27;5413;-62
2022/01/27 05:15:17;;;;;;;;;;;;;;;1.42;84.55;98214.25;4231600;28;6507;-63
2022/01/27 05:17:19;;;;;;;;;;;;;;;1.48;84.59;98210.41;4241118;27;5628;-63
2022/01/27 05:19:21;;;;;;;;;;;;;;;1.49;84.22;98218.13;4198347;28;6074;-63
2022/01/27 05:21:23;;;;;;;;;;;;;;;1.48;84.25;98215.63;4242745;27;5922;-63
2022/01/27 05:23:24;;;;;;;;;;;;;;;1.43;84.04;98210.69;4249779;27;5598;-63
2022/01/27 05:25:26;;;;;;;;;;;;;;;1.50;84.02;98213.75;4249579;27;6120;-63
2022/01/27 05:27:27;;;;;;;;;;;;;;;1.56;84.15;98216.75;4231133;28;5692;-63
2022/01/27 05:29:34;;;;;;;;;;;;;;;1.54;83.77;98216.03;4249458;27;5598;-63
2022/01/27 05:31:36;;;;;;;;;;;;;;;1.56;83.74;98214.16;4231667;28;5628;-63
2022/01/27 05:33:38;;;;;;;;;;;;;;;1.58;83.53;98211.44;4249954;27;5605;-63
2022/01/27 05:35:40;;;;;;;;;;;;;;;1.51;83.25;98213.63;4249830;27;5590;-62
2022/01/27 05:37:41;;;;;;;;;;;;;;;1.38;83.70;98208.41;4249424;27;5618;-63
2022/01/27 05:39:43;;;;;;;;;;;;;;;1.34;83.83;98214.75;4249679;27;5601;-62
2022/01/27 05:41:44;;;;;;;;;;;;;;;1.45;83.92;98211.44;4249627;27;5621;-62
2022/01/27 05:43:46;;;;;;;;;;;;;;;1.58;83.40;98217.47;4247963;27;5594;-62
2022/01/27 05:45:48;;;;;;;;;;;;;;;1.62;83.22;98212.94;4224794;28;5709;-62
2022/01/27 05:47:49;;;;;;;;;;;;;;;1.57;83.24;98207.16;4234185;27;5609;-63
2022/01/27 05:49:51;;;;;;;;;;;;;;;1.56;82.90;98208.09;4242635;27;5617;-63
2022/01/27 05:51:52;;;;;;;;;;;;;;;1.23;83.65;98217.22;4241872;27;6300;-62
2022/01/27 05:53:54;;;;;;;;;;;;;;;1.38;83.79;98215.38;4193053;28;5659;-62
2022/01/27 05:55:57;;;;;;;;;;;;;;;1.44;83.54;98209.75;4227954;28;5818;-62
2022/01/27 05:57:59;;;;;;;;;;;;;;;1.36;83.19;98215.50;4227990;28;5611;-62
2022/01/27 06:00:04;;;;;;;;;;;;;;;1.38;83.49;98215.38;4227291;28;6382;-62
2022/01/27 06:02:08;;;;;;;;;;;;;;;1.57;83.06;98218.44;4225515;28;5616;-62
2022/01/27 06:04:10;;;;;;;;;;;;;;;1.66;82.74;98210.00;4227271;28;5644;-62
2022/01/27 06:06:12;;;;;;;;;;;;;;;1.62;82.57;98213.75;4225791;28;5651;-62
2022/01/27 06:08:13;;;;;;;;;;;;;;;1.53;83.11;98219.56;4207251;28;5628;-62
2022/01/27 06:10:15;;;;;;;;;;;;;;;1.69;83.07;98209.78;4185363;28;5651;-62
2022/01/27 06:12:17;;;;;;;;;;;;;;;1.78;82.69;98218.75;4220043;28;5740;-62
2022/01/27 06:14:19;;;;;;;;;;;;;;;1.85;82.83;98219.19;4227938;28;5619;-62
2022/01/27 06:16:20;;;;;;;;;;;;;;;1.88;82.61;98211.16;4190436;22;5711;-62
2022/01/27 06:18:23;;;;;;;;;;;;;;;1.86;82.11;98219.09;4184750;28;5840;-62
2022/01/27 06:20:28;;;;;;;;;;;;;;;1.67;82.37;98211.66;4185294;28;5727;-62
2022/01/27 06:22:29;;;;;;;;;;;;;;;1.65;82.42;98213.53;4185068;28;5728;-62
2022/01/27 06:24:31;;;;;;;;;;;;;;;1.63;82.81;98215.44;4186149;28;5881;-62
2022/01/27 06:26:33;;;;;;;;;;;;;;;1.67;82.75;98221.25;4184070;28;5855;-62
2022/01/27 06:28:34;;;;;;;;;;;;;;;1.66;82.56;98223.03;4187174;28;5699;-62
2022/01/27 06:30:36;;;;;;;;;;;;;;;1.67;82.57;98227.31;4183057;28;8038;-62
2022/01/27 06:32:41;;;;;;;;;;;;;;;1.69;82.39;98220.22;4185564;28;5721;-62
2022/01/27 06:34:43;;;;;;;;;;;;;;;1.68;82.89;98212.50;4186192;28;5776;-62
2022/01/27 06:36:44;;;;;;;;;;;;;;;1.73;82.39;98224.31;4166842;28;5772;-62
2022/01/27 06:38:46;;;;;;;;;;;;;;;1.79;82.27;98217.81;4183017;28;5720;-62
2022/01/27 06:40:48;;;;;;;;;;;;;;;1.80;82.11;98216.06;4180109;28;5740;-62
2022/01/27 06:42:49;;;;;;;;;;;;;;;1.82;82.13;98214.19;4169947;28;5734;-62
2022/01/27 06:44:51;;;;;;;;;;;;;;;1.86;81.52;98221.69;4179884;28;5724;-63
2022/01/27 06:46:53;;;;;;;;;;;;;;;1.67;82.34;98227.31;4185594;28;5728;-62
2022/01/27 06:48:55;;;;;;;;;;;;;;;1.74;82.48;98233.78;4185100;28;5724;-62
2022/01/27 06:50:56;;;;;;;;;;;;;;;1.77;82.35;98231.91;4184259;28;5719;-62
2022/01/27 06:52:59;;;;;;;;;;;;;;;1.84;81.70;98230.56;4185632;28;6093;-61
2022/01/27 06:55:03;;;;;;;;;;;;;;;1.86;81.79;98233.91;4184523;28;5840;-62
2022/01/27 06:57:09;;;;;;;;;;;;;;;1.79;81.75;98230.84;4185428;28;5724;-61
2022/01/27 06:59:11;;;;;;;;;;;;;;;1.72;82.13;98233.06;4168243;28;5840;-62
2022/01/27 07:01:13;;;;;;;;;;;;;;;1.74;82.16;98225.97;4182558;28;5813;-62
2022/01/27 07:03:15;;;;;;;;;;;;;;;1.69;82.33;98225.41;4185483;28;5712;-61
2022/01/27 07:05:18;;;;;;;;;;;;;;;1.73;82.09;98219.09;4186365;28;5716;-62
2022/01/27 07:07:20;;;;;;;;;;;;;;;1.78;82.00;98221.38;4184313;28;5755;-62
2022/01/27 07:09:21;;;;;;;;;;;;;;;1.63;81.82;98231.06;4184377;28;5852;-62
2022/01/27 07:11:23;;;;;;;;;;;;;;;1.79;82.02;98224.81;4184817;28;5772;-62
2022/01/27 07:13:24;;;;;;;;;;;;;;;1.77;81.50;98224.91;4182867;28;5744;-61
2022/01/27 07:15:28;;;;;;;;;;;;;;;1.79;81.99;98225.66;4189992;28;5862;-62
2022/01/27 07:17:30;;;;;;;;;;;;;;;1.81;81.75;98238.56;4199957;28;5620;-62
2022/01/27 07:19:32;;;;;;;;;;;;;;;1.79;82.01;98236.06;4197659;28;5722;-61
2022/01/27 07:21:33;;;;;;;;;;;;;;;1.79;81.94;98235.25;4200579;28;5752;-61
2022/01/27 07:23:35;;;;;;;;;;;;;;;1.75;81.31;98234.63;4182087;28;5733;-62
2022/01/27 07:25:37;;;;;;;;;;;;;;;1.72;81.71;98240.06;4202855;28;5759;-62
2022/01/27 07:27:38;;;;;;;;;;;;;;;1.65;81.78;98239.63;4201773;28;5675;-61
2022/01/27 07:29:40;;;;;;;;;;;;;;;1.62;82.00;98242.44;4201862;28;5639;-61
2022/01/27 07:31:41;;;;;;;;;;;;;;;1.35;83.99;98246.84;4201617;28;5659;-61
2022/01/27 07:33:43;;;;;;;;;;;;;;;1.27;83.71;98256.94;4183085;28;5724;-61
2022/01/27 07:35:45;;;;;;;;;;;;;;;1.20;85.49;98255.66;4201529;28;5770;-62
2022/01/27 07:37:47;;;;;;;;;;;;;;;0.95;85.32;98254.63;4184476;28;5730;-62
2022/01/27 07:39:48;;;;;;;;;;;;;;;0.89;86.11;98255.00;4201695;28;5635;-61
2022/01/27 07:41:51;;;;;;;;;;;;;;;1.31;84.68;98266.22;4201483;28;5631;-62
2022/01/27 07:43:52;;;;;;;;;;;;;;;1.51;83.58;98263.16;4201453;28;5687;-62
2022/01/27 07:45:54;;;;;;;;;;;;;;;1.60;83.44;98264.34;4201770;28;5640;-61
2022/01/27 07:47:57;;;;;;;;;;;;;;;1.69;82.69;98256.72;4202321;28;5623;-62
2022/01/27 07:49:59;;;;;;;;;;;;;;;1.66;82.99;98256.91;4200905;28;6315;-61
2022/01/27 07:52:00;;;;;;;;;;;;;;;1.66;83.12;98256.91;4201971;28;5759;-62
2022/01/27 07:54:03;;;;;;;;;;;;;;;1.68;83.03;98260.25;4183039;28;6482;-61
2022/01/27 07:56:06;;;;;;;;;;;;;;;1.64;82.97;98266.63;4183976;28;5830;-61
2022/01/27 07:58:08;;;;;;;;;;;;;;;1.79;82.90;98264.75;4202409;28;5661;-63
2022/01/27 08:00:11;;;;;;;;;;;;;;;1.84;82.86;98267.91;4183709;28;5728;-62
2022/01/27 08:02:12;;;;;;;;;;;;;;;1.88;82.38;98271.97;4201507;28;5687;-62
2022/01/27 08:04:14;;;;;;;;;;;;;;;1.93;82.51;98271.69;4201308;28;5651;-62
2022/01/27 08:06:16;;;;;;;;;;;;;;;1.93;82.39;98274.28;4201264;28;5641;-63
2022/01/27 08:08:17;;;;;;;;;;;;;;;1.88;82.37;98273.75;4201396;28;5874;-62
2022/01/27 08:10:19;;;;;;;;;;;;;;;1.93;82.21;98274.28;4201382;28;5086;-63
2022/01/27 08:12:20;;;;;;;;;;;;;;;1.91;82.27;98274.38;4202000;28;5795;-63
2022/01/27 08:14:22;;;;;;;;;;;;;;;1.93;82.23;98275.13;4166096;28;6837;-62
2022/01/27 08:16:23;;;;;;;;;;;;;;;1.97;82.50;98280.97;4184838;28;6448;-62
2022/01/27 08:18:25;;;;;;;;;;;;;;;1.96;82.10;98280.13;4185199;28;5756;-62
2022/01/27 08:20:27;;;;;;;;;;;;;;;1.98;82.05;98280.84;4199171;28;5631;-62
2022/01/27 08:22:29;;;;;;;;;;;;;;;1.92;82.14;98283.84;4200892;28;5660;-62
2022/01/27 08:24:30;;;;;;;;;;;;;;;1.96;82.18;98282.72;4199810;28;5736;-63
2022/01/27 08:26:38;;;;;;;;;;;;;;;1.94;82.17;98283.78;4183784;28;5715;-63
2022/01/27 08:28:46;;;;;;;;;;;;;;;1.91;82.28;98279.56;4201706;28;5893;-62
2022/01/27 08:30:51;;;;;;;;;;;;;;;1.90;82.32;98280.53;4183178;28;6142;-62
2022/01/27 08:33:04;;;;;;;;;;;;;;;1.88;82.62;98282.41;4199984;28;5651;-62
2022/01/27 08:35:06;;;;;;;;;;;;;;;1.94;82.30;98287.22;4178236;28;5820;-62
2022/01/27 08:37:10;;;;;;;;;;;;;;;1.67;83.00;98279.44;4200892;28;5755;-63
2022/01/27 08:39:12;;;;;;;;;;;;;;;1.63;83.20;98284.97;4200763;28;5631;-63
2022/01/27 08:41:13;;;;;;;;;;;;;;;1.49;84.16;98285.88;4184086;28;5786;-62
2022/01/27 08:43:15;;;;;;;;;;;;;;;1.58;83.90;98290.47;4200252;28;5647;-62
2022/01/27 08:45:19;;;;;;;;;;;;;;;1.75;83.38;98289.38;4201138;28;5620;-63
2022/01/27 08:47:20;;;;;;;;;;;;;;;1.78;83.13;98285.72;4200930;28;5744;-62
2022/01/27 08:49:25;;;;;;;;;;;;;;;1.34;84.93;98284.25;4200127;28;5639;-63
2022/01/27 08:51:30;;;;;;;;;;;;;;;1.47;84.83;98287.72;4201547;28;5623;-62
2022/01/27 08:53:34;;;;;;;;;;;;;;;1.73;84.03;98279.06;4182040;28;5917;-63
2022/01/27 08:55:35;;;;;;;;;;;;;;;1.95;83.32;98286.28;4201086;28;5776;-62
2022/01/27 08:57:38;;;;;;;;;;;;;;;2.02;83.02;98284.06;4200538;28;5643;-62
2022/01/27 08:59:40;;;;;;;;;;;;;;;2.02;82.84;98286.69;4201663;28;5767;-62
2022/01/27 09:01:42;;;;;;;;;;;;;;;2.01;82.72;98287.63;4201436;28;5658;-62
2022/01/27 09:03:45;;;;;;;;;;;;;;;2.09;82.20;98285.34;4199718;28;5631;-63
2022/01/27 09:05:47;;;;;;;;;;;;;;;2.03;82.49;98281.34;4183199;28;5727;-62
2022/01/27 09:07:50;;;;;;;;;;;;;;;2.00;82.67;98280.75;4200396;28;5743;-62
2022/01/27 09:09:52;;;;;;;;;;;;;;;1.75;83.18;98279.78;4201580;28;5664;-63
2022/01/27 09:11:55;;;;;;;;;;;;;;;1.93;82.82;98279.50;4183234;28;5723;-62
2022/01/27 09:14:01;;;;;;;;;;;;;;;2.04;82.44;98283.06;4198695;28;5697;-62
2022/01/27 09:16:04;;;;;;;;;;;;;;;1.95;82.03;98282.84;4200015;28;5699;-62
2022/01/27 09:18:06;;;;;;;;;;;;;;;1.82;82.87;98293.25;4200516;28;5627;-63
2022/01/27 09:20:09;;;;;;;;;;;;;;;1.82;82.55;98287.22;4182611;28;5747;-62
2022/01/27 09:22:14;;;;;;;;;;;;;;;1.95;82.21;98285.44;4183107;28;5711;-62
2022/01/27 09:24:18;;;;;;;;;;;;;;;1.93;82.17;98287.31;4182205;28;5831;-63
2022/01/27 09:28:47;;;;;;;;;;;;;;;1.97;82.03;98286.19;4200330;28;5631;-62
2022/01/27 09:30:48;;;;;;;;;;;;;;;1.59;83.13;98292.16;4200742;28;5748;-62
2022/01/27 09:32:50;;;;;;;;;;;;;;;1.86;82.07;98288.66;4201093;28;5660;-62
2022/01/27 09:34:52;;;;;;;;;;;;;;;1.76;82.38;98283.22;4200298;28;6336;-62
2022/01/27 09:36:54;;;;;;;;;;;;;;;1.98;81.76;98283.47;4200859;28;5631;-63
2022/01/27 09:38:56;;;;;;;;;;;;;;;2.04;81.08;98287.44;4200786;28;5106;-62
2022/01/27 09:40:58;;;;;;;;;;;;;;;2.06;81.27;98285.56;4200541;28;7719;-63
2022/01/27 09:43:02;;;;;;;;;;;;;;;2.06;80.83;98280.34;4182306;28;5826;-63
2022/01/27 09:45:07;;;;;;;;;;;;;;;2.10;80.56;98289.63;4203237;28;5642;-63
2022/01/27 09:47:14;;;;;;;;;;;;;;;2.10;80.82;98292.22;4185258;28;5727;-63
2022/01/27 09:49:19;;;;;;;;;;;;;;;2.06;80.31;98282.94;4203496;28;5636;-63
2022/01/27 09:53:22;;;;;;;;;;;;;;;1.93;81.38;98289.94;4203778;28;6303;-64
2022/01/27 09:55:24;;;;;;;;;;;;;;;1.94;81.20;98286.38;4184202;28;5754;-63
2022/01/27 09:57:32;;;;;;;;;;;;;;;1.72;82.00;98286.97;4193052;28;5837;-62
2022/01/27 09:59:34;;;;;;;;;;;;;;;1.98;81.37;98296.50;4203351;28;5164;-62
2022/01/27 10:01:37;;;;;;;;;;;;;;;2.07;80.68;98291.63;4202503;28;7703;-62
2022/01/27 10:03:52;;;;;;;;;;;;;;;2.05;80.85;98286.50;4185152;28;5715;-62
2022/01/27 10:06:16;;;;;;;;;;;;;;;2.11;80.83;98291.28;4203849;28;5643;-63
2022/01/27 10:08:19;;;;;;;;;;;;;;;2.11;80.50;98291.28;4203334;28;5746;-63
2022/01/27 10:10:21;;;;;;;;;;;;;;;2.08;80.30;98294.13;4203941;28;5789;-62
2022/01/27 10:12:28;;;;;;;;;;;;;;;1.86;80.52;98299.94;4184243;28;5844;-62
2022/01/27 10:14:37;;;;;;;;;;;;;;;1.95;81.24;98298.50;4203463;28;5635;-62
2022/01/27 10:16:42;;;;;;;;;;;;;;;2.22;80.42;98304.44;4201974;28;5632;-63
2022/01/27 10:18:44;;;;;;;;;;;;;;;2.27;80.12;98304.97;4185549;28;5724;-62
2022/01/27 10:20:51;;;;;;;;;;;;;;;2.29;79.83;98299.66;4202559;28;5648;-62
2022/01/27 10:23:08;;;;;;;;;;;;;;;2.32;79.94;98302.88;4203340;28;5895;-62
2022/01/27 10:25:10;;;;;;;;;;;;;;;2.28;79.36;98304.03;4202904;28;5730;-62
2022/01/27 10:27:17;;;;;;;;;;;;;;;2.04;79.91;98297.88;4184016;28;5715;-63
2022/01/27 10:29:34;;;;;;;;;;;;;;;2.06;79.79;98300.38;4185089;28;5716;-63
2022/01/27 10:31:39;;;;;;;;;;;;;;;2.03;79.52;98296.19;4183593;28;5723;-63
2022/01/27 10:34:01;;;;;;;;;;;;;;;2.03;79.85;98298.78;4201970;28;5643;-62
2022/01/27 10:36:36;;;;;;;;;;;;;;;2.12;79.63;98298.16;4195014;28;5812;-63
2022/01/27 10:38:39;;;;;;;;;;;;;;;2.10;79.32;98292.22;4203041;28;5639;-63
2022/01/27 10:40:48;;;;;;;;;;;;;;;1.72;80.45;98298.25;4201704;28;5898;-63
2022/01/27 10:43:10;;;;;;;;;;;;;;;2.02;79.54;98292.75;4202004;28;5762;-63
2022/01/27 10:45:16;;;;;;;;;;;;;;;1.99;79.61;98294.72;4201839;28;5643;-62
2022/01/27 10:47:22;;;;;;;;;;;;;;;2.15;79.54;98300.59;4201300;28;5782;-62
2022/01/27 10:49:33;;;;;;;;;;;;;;;2.21;79.23;98289.72;4203465;28;5691;-62
2022/01/27 10:51:50;;;;;;;;;;;;;;;2.18;79.09;98289.13;4184405;28;5642;-62
2022/01/27 10:54:07;;;;;;;;;;;;;;;2.06;79.40;98277.75;4183196;28;5816;-62
2022/01/27 10:56:08;;;;;;;;;;;;;;;2.11;79.23;98283.47;4192186;28;5651;-62
2022/01/27 10:58:31;;;;;;;;;;;;;;;2.06;79.21;98285.56;4201220;28;5631;-63
2022/01/27 11:00:37;;;;;;;;;;;;;;;2.11;79.31;98280.84;4201878;28;5801;-62
2022/01/27 11:02:54;;;;;;;;;;;;;;;2.28;78.64;98288.38;4183955;28;5718;-62
2022/01/27 11:04:56;;;;;;;;;;;;;;;2.23;78.78;98281.78;4202338;28;5628;-62
2022/01/27 11:07:02;;;;;;;;;;;;;;;2.36;78.60;98273.94;4201434;28;5664;-62
2022/01/27 11:09:09;;;;;;;;;;;;;;;2.42;78.54;98273.53;4184768;28;5731;-62
2022/01/27 11:11:13;;;;;;;;;;;;;;;2.47;78.54;98274.03;4184180;28;5731;-62
2022/01/27 11:13:20;;;;;;;;;;;;;;;2.10;78.90;98270.53;4201608;28;6002;-61
2022/01/27 11:15:22;;;;;;;;;;;;;;;2.20;79.11;98274.19;4202565;28;5640;-61
2022/01/27 11:17:29;;;;;;;;;;;;;;;2.29;78.85;98263.94;4202193;28;5694;-61
2022/01/27 11:21:38;;;;;;;;;;;;;;;2.23;79.36;98260.91;4201980;28;5639;-62
2022/01/27 11:24:01;;;;;;;;;;;;;;;2.36;79.06;98266.97;4184188;28;5767;-62
2022/01/27 11:26:04;;;;;;;;;;;;;;;2.46;78.44;98264.56;4195595;28;5841;-61
2022/01/27 11:28:08;;;;;;;;;;;;;;;2.29;78.17;98257.91;4202671;28;5744;-61
2022/01/27 11:30:18;;;;;;;;;;;;;;;2.12;79.87;98260.81;4202648;28;5788;-62
2022/01/27 11:32:31;;;;;;;;;;;;;;;2.13;80.55;98252.88;4183156;28;5719;-61
2022/01/27 11:34:53;;;;;;;;;;;;;;;2.06;81.05;98258.66;4198385;28;6372;-61
2022/01/27 11:37:05;;;;;;;;;;;;;;;1.75;82.53;98256.31;4187384;28;5683;-61
2022/01/27 11:39:11;;;;;;;;;;;;;;;2.01;81.54;98256.31;4199452;28;5748;-61
2022/01/27 11:41:39;;;;;;;;;;;;;;;1.88;82.41;98252.88;4201821;28;5635;-61
2022/01/27 11:43:40;;;;;;;;;;;;;;;1.59;83.17;98255.69;4181190;28;6377;-61
2022/01/27 11:45:52;;;;;;;;;;;;;;;1.57;83.50;98254.91;4173783;28;6429;-62
2022/01/27 11:48:01;;;;;;;;;;;;;;;1.82;82.58;98248.09;4193664;28;6496;-62
2022/01/27 11:52:27;;;;;;;;;;;;;;;2.03;81.33;98244.00;4197730;28;5567;-62
2022/01/27 11:54:29;;;;;;;;;;;;;;;2.16;80.62;98237.03;4186787;28;5723;-62
2022/01/27 11:56:33;;;;;;;;;;;;;;;1.93;81.03;98245.59;4200413;28;5643;-63
2022/01/27 11:58:49;;;;;;;;;;;;;;;1.65;81.92;98238.78;4183070;28;5739;-63
2022/01/27 12:01:10;;;;;;;;;;;;;;;1.91;81.61;98237.03;4202160;28;5818;-63
2022/01/27 12:03:15;;;;;;;;;;;;;;;1.93;80.98;98232.56;4201231;28;5628;-63
2022/01/27 12:05:17;;;;;;;;;;;;;;;2.11;80.35;98218.25;4198110;28;5683;-63
2022/01/27 12:07:18;;;;;;;;;;;;;;;2.08;80.41;98218.47;4198238;28;5832;-63
2022/01/27 12:09:21;;;;;;;;;;;;;;;2.09;80.42;98214.91;4167314;28;5737;-63
2022/01/27 12:11:44;;;;;;;;;;;;;;;2.08;80.05;98215.84;4200719;28;6264;-63
2022/01/27 12:13:49;;;;;;;;;;;;;;;2.07;80.43;98218.56;4197456;28;5639;-63
2022/01/27 12:18:34;;;;;;;;;;;;;;;2.13;80.73;98218.97;4200786;28;5623;-63
2022/01/27 12:20:43;;;;;;;;;;;;;;;2.17;80.41;98210.00;4184033;28;5708;-62
2022/01/27 12:22:49;;;;;;;;;;;;;;;2.21;80.26;98206.22;4183282;28;5882;-63
2022/01/27 12:24:55;;;;;;;;;;;;;;;2.23;80.48;98206.13;4200194;28;5469;-62
2022/01/27 12:27:04;;;;;;;;;;;;;;;2.37;79.97;98197.31;4194503;28;6967;-63
2022/01/27 12:29:07;;;;;;;;;;;;;;;2.08;80.24;98194.97;4183256;28;5672;-62
2022/01/27 12:31:09;;;;;;;;;;;;;;;2.32;80.23;98198.50;4201908;28;6652;-62
2022/01/27 12:33:10;;;;;;;;;;;;;;;2.39;79.83;98198.06;4183006;28;6983;-62
2022/01/27 12:35:15;;;;;;;;;;;;;;;2.34;79.62;98198.38;4201686;28;5623;-62
2022/01/27 12:37:38;;;;;;;;;;;;;;;2.37;79.71;98202.53;4183676;28;5823;-62
2022/01/27 12:39:50;;;;;;;;;;;;;;;2.32;79.11;98190.66;4187208;28;5643;-62
2022/01/27 12:41:54;;;;;;;;;;;;;;;2.39;79.15;98192.84;4199984;28;5879;-62
2022/01/27 12:44:07;;;;;;;;;;;;;;;2.25;79.08;98192.03;4201020;28;5647;-62
2022/01/27 12:46:09;;;;;;;;;;;;;;;2.25;79.20;98194.63;4201584;28;5643;-62
2022/01/27 12:48:20;;;;;;;;;;;;;;;2.19;79.45;98197.69;4183742;28;5723;-62
2022/01/27 12:50:24;;;;;;;;;;;;;;;2.24;79.32;98190.34;4201362;28;5636;-62
2022/01/27 12:52:29;;;;;;;;;;;;;;;2.20;79.10;98191.53;4199025;28;5204;-62
2022/01/27 12:54:31;;;;;;;;;;;;;;;2.02;79.73;98184.97;4195674;28;5899;-62
2022/01/27 12:56:34;;;;;;;;;;;;;;;2.00;80.12;98176.41;4188544;28;5837;-62
2022/01/27 12:58:36;;;;;;;;;;;;;;;2.00;80.12;98172.03;4182930;28;6591;-62
2022/01/27 13:00:56;;;;;;;;;;;;;;;2.05;80.16;98163.91;4201380;28;5524;-62
2022/01/27 13:03:00;;;;;;;;;;;;;;;1.90;80.78;98157.94;4182754;28;5910;-62
2022/01/27 13:05:05;;;;;;;;;;;;;;;1.49;82.18;98157.34;4196333;28;5631;-62
2022/01/27 13:07:07;;;;;;;;;;;;;;;1.81;81.49;98149.91;4196412;28;5663;-62
2022/01/27 13:09:10;;;;;;;;;;;;;;;1.86;81.14;98146.06;4198295;28;5631;-62
2022/01/27 13:11:13;;;;;;;;;;;;;;;1.91;81.15;98143.13;4199955;28;5643;-62
2022/01/27 13:13:20;;;;;;;;;;;;;;;1.58;82.30;98141.91;4182101;28;5766;-62
2022/01/27 13:15:26;;;;;;;;;;;;;;;1.83;81.56;98140.25;4193408;28;5647;-62
2022/01/27 13:17:50;;;;;;;;;;;;;;;1.89;81.36;98138.03;4200637;28;5647;-62
2022/01/27 13:19:57;;;;;;;;;;;;;;;1.91;81.32;98130.09;4194982;28;5616;-62
2022/01/27 13:22:09;;;;;;;;;;;;;;;1.77;81.95;98133.66;4201812;28;5635;-63
2022/01/27 13:24:18;;;;;;;;;;;;;;;1.83;81.86;98137.63;4189085;28;5822;-62
2022/01/27 13:26:20;;;;;;;;;;;;;;;1.78;81.56;98134.50;4199465;28;5636;-62
2022/01/27 13:28:42;;;;;;;;;;;;;;;1.73;81.81;98127.84;4204054;28;5643;-62
2022/01/27 13:30:45;;;;;;;;;;;;;;;1.76;82.05;98134.59;4203582;28;5707;-62
2022/01/27 13:32:47;;;;;;;;;;;;;;;1.70;82.07;98129.81;4202653;28;5628;-62
2022/01/27 13:34:49;;;;;;;;;;;;;;;1.65;82.32;98126.69;4203335;28;5877;-62
2022/01/27 13:36:58;;;;;;;;;;;;;;;1.63;82.65;98121.59;4198121;28;6339;-62
2022/01/27 13:41:24;;;;;;;;;;;;;;;1.73;82.39;98116.56;4201011;28;5748;-62
2022/01/27 13:43:38;;;;;;;;;;;;;;;1.73;82.08;98112.19;4195973;28;5639;-62
2022/01/27 13:45:40;;;;;;;;;;;;;;;1.28;83.88;98116.16;4196336;28;5822;-62
2022/01/27 13:47:42;;;;;;;;;;;;;;;1.45;83.59;98112.41;4197789;28;5651;-62
2022/01/27 13:49:45;;;;;;;;;;;;;;;1.70;82.60;98114.19;4194684;28;5658;-63
2022/01/27 13:51:53;;;;;;;;;;;;;;;1.79;82.38;98115.31;4195047;28;5731;-63
2022/01/27 13:54:05;;;;;;;;;;;;;;;1.94;81.95;98109.03;4201664;28;5695;-63
2022/01/27 13:56:07;;;;;;;;;;;;;;;1.87;82.00;98107.78;4179128;28;5752;-64
2022/01/27 13:58:10;;;;;;;;;;;;;;;1.94;81.75;98111.66;4201192;28;5826;-63
2022/01/27 14:00:14;;;;;;;;;;;;;;;1.84;82.09;98110.63;4201562;28;5794;-63
2022/01/27 14:02:22;;;;;;;;;;;;;;;1.83;82.17;98116.78;4202409;28;5208;-63
2022/01/27 14:04:47;;;;;;;;;;;;;;;1.84;82.30;98119.28;4168975;28;5877;-63
2022/01/27 14:06:58;;;;;;;;;;;;;;;2.03;81.70;98119.63;4197869;28;5636;-63
2022/01/27 14:09:14;;;;;;;;;;;;;;;2.13;81.49;98117.22;4184102;28;5712;-63
2022/01/27 14:11:19;;;;;;;;;;;;;;;2.02;81.80;98120.59;4192441;28;5627;-63
2022/01/27 14:13:24;;;;;;;;;;;;;;;2.04;82.08;98126.53;4199258;28;5647;-63
2022/01/27 14:15:39;;;;;;;;;;;;;;;2.05;81.99;98127.38;4178280;28;5938;-63
2022/01/27 14:17:40;;;;;;;;;;;;;;;1.75;82.78;98122.50;4186754;28;5731;-63
2022/01/27 14:19:42;;;;;;;;;;;;;;;1.63;83.73;98126.78;4184107;28;5779;-63
2022/01/27 14:21:46;;;;;;;;;;;;;;;1.53;84.50;98125.75;4184928;28;5716;-63
2022/01/27 14:24:09;;;;;;;;;;;;;;;1.77;83.58;98119.78;4181857;28;5724;-63
2022/01/27 14:26:58;;;;;;;;;;;;;;;1.63;83.55;98128.56;4185512;28;5864;-63
2022/01/27 14:28:41;;;;;;;;;;;;;;;1.50;84.47;98128.56;4172054;28;5748;-63
2022/01/27 14:30:42;;;;;;;;;;;;;;;1.40;85.06;98135.34;4168060;28;5756;-63
2022/01/27 14:32:45;;;;;;;;;;;;;;;1.46;84.95;98132.31;4178666;28;5934;-63
2022/01/27 14:34:50;;;;;;;;;;;;;;;1.61;84.03;98133.88;4185036;28;5733;-62
2022/01/27 14:36:52;;;;;;;;;;;;;;;1.65;84.17;98131.91;4186014;28;5715;-62
2022/01/27 14:38:54;;;;;;;;;;;;;;;1.84;83.38;98129.69;4168408;28;5861;-62
2022/01/27 14:40:56;;;;;;;;;;;;;;;1.80;83.25;98133.44;4184394;28;5823;-63
2022/01/27 14:43:01;;;;;;;;;;;;;;;1.77;83.36;98130.22;4185226;28;5818;-63
2022/01/27 14:45:05;;;;;;;;;;;;;;;1.89;83.08;98126.75;4184969;28;5854;-62
2022/01/27 14:47:07;;;;;;;;;;;;;;;1.89;82.79;98130.19;4184009;28;5715;-63
2022/01/27 14:49:12;;;;;;;;;;;;;;;1.75;83.45;98138.16;4174459;28;5971;-62
2022/01/27 14:51:16;;;;;;;;;;;;;;;1.93;83.10;98143.88;4182955;28;5825;-62
2022/01/27 14:53:19;;;;;;;;;;;;;;;2.07;82.85;98135.94;4184390;28;5827;-62
2022/01/27 14:55:27;;;;;;;;;;;;;;;1.89;83.16;98147.63;4185314;28;5942;-63
2022/01/27 14:57:28;;;;;;;;;;;;;;;1.98;82.92;98139.16;4186698;28;5824;-62
2022/01/27 14:59:30;;;;;;;;;;;;;;;2.02;82.85;98138.00;4186400;28;5754;-63
2022/01/27 15:01:32;;;;;;;;;;;;;;;1.96;83.28;98134.06;4185836;28;5715;-63
2022/01/27 15:03:34;;;;;;;;;;;;;;;2.00;83.06;98135.50;4181298;28;5752;-62
2022/01/27 15:05:36;;;;;;;;;;;;;;;1.94;83.59;98135.13;4183822;28;5723;-63
2022/01/27 15:07:38;;;;;;;;;;;;;;;1.96;83.48;98141.88;4186178;28;5832;-63
2022/01/27 15:09:39;;;;;;;;;;;;;;;1.98;83.48;98126.97;4184643;28;5918;-63
2022/01/27 15:11:41;;;;;;;;;;;;;;;1.87;84.04;98131.25;4181371;28;5943;-62
2022/01/27 15:13:45;;;;;;;;;;;;;;;1.75;84.53;98131.16;4177737;28;5805;-62
2022/01/27 15:20:29;;;;;;;;;;;;;;;1.95;83.50;98134.19;4201849;28;5707;-62
2022/01/27 15:22:32;;;;;;;;;;;;;;;1.92;83.62;98135.19;4201170;28;5639;-63
2022/01/27 15:24:34;;;;;;;;;;;;;;;1.91;83.81;98137.91;4184163;28;5719;-62
2022/01/27 15:26:36;;;;;;;;;;;;;;;1.94;83.76;98148.16;4204855;28;5761;-62
2022/01/27 15:28:38;;;;;;;;;;;;;;;1.88;83.92;98140.75;4183081;28;5810;-62
2022/01/27 15:30:40;;;;;;;;;;;;;;;1.86;83.84;98130.44;4177547;28;5811;-62
2022/01/27 15:32:42;;;;;;;;;;;;;;;1.84;84.01;98126.25;4196126;28;5689;-63
2022/01/27 15:34:45;;;;;;;;;;;;;;;1.87;83.95;98123.44;4190448;28;5655;-62
2022/01/27 15:36:47;;;;;;;;;;;;;;;1.86;84.06;98121.78;4169832;28;5819;-63
2022/01/27 15:38:49;;;;;;;;;;;;;;;1.91;83.83;98122.28;4193463;28;5841;-63
2022/01/27 15:40:52;;;;;;;;;;;;;;;1.95;83.78;98123.75;4199194;28;5904;-62
2022/01/27 15:42:58;;;;;;;;;;;;;;;1.88;83.96;98127.72;4192937;28;5854;-63
2022/01/27 15:45:00;;;;;;;;;;;;;;;1.83;84.30;98137.63;4201428;28;5644;-62
2022/01/27 15:47:03;;;;;;;;;;;;;;;1.58;85.75;98131.47;4196420;28;5612;-63
2022/01/27 15:49:06;;;;;;;;;;;;;;;1.59;85.76;98134.94;4176397;28;5797;-63
2022/01/27 15:51:07;;;;;;;;;;;;;;;1.74;84.94;98119.06;4171698;28;5743;-63
2022/01/27 15:53:10;;;;;;;;;;;;;;;1.75;84.97;98120.72;4198596;28;5628;-63
2022/01/27 15:55:13;;;;;;;;;;;;;;;1.91;84.26;98119.66;4202209;28;5639;-64
2022/01/27 15:57:15;;;;;;;;;;;;;;;2.01;83.84;98121.53;4181984;28;5926;-63
2022/01/27 15:59:20;;;;;;;;;;;;;;;2.04;83.76;98123.09;4200862;28;5777;-63
2022/01/27 16:01:26;;;;;;;;;;;;;;;2.13;83.30;98125.03;4185527;28;5646;-61
2022/01/27 16:03:43;;;;;;;;;;;;;;;2.17;83.18;98131.72;4195501;28;5687;-61
2022/01/27 16:05:58;;;;;;;;;;;;;;;2.10;83.05;98146.13;4184359;28;6394;-61
2022/01/27 16:08:20;;;;;;;;;;;;;;;2.19;82.72;98147.28;4201946;28;5612;-61
2022/01/27 16:10:26;;;;;;;;;;;;;;;2.16;82.73;98145.72;4200818;28;5628;-62
2022/01/27 16:12:28;;;;;;;;;;;;;;;2.19;82.91;98145.50;4198762;28;5853;-63
2022/01/27 16:14:30;;;;;;;;;;;;;;;2.18;82.47;98145.63;4192472;28;5723;-61
2022/01/27 16:16:33;;;;;;;;;;;;;;;2.19;82.75;98140.28;4178389;28;5712;-62
2022/01/27 16:18:36;;;;;;;;;;;;;;;2.19;82.66;98132.44;4181081;28;5720;-62
2022/01/27 16:20:37;;;;;;;;;;;;;;;2.21;82.33;98138.38;4173961;28;5900;-62
2022/01/27 16:22:41;;;;;;;;;;;;;;;2.15;82.66;98138.84;4176347;28;5854;-61
2022/01/27 16:24:44;;;;;;;;;;;;;;;2.12;82.52;98139.03;4169049;28;5824;-62
2022/01/27 16:26:48;;;;;;;;;;;;;;;2.11;82.52;98137.38;4176193;28;5844;-62
2022/01/27 16:28:53;;;;;;;;;;;;;;;2.07;82.59;98130.72;4179107;28;5819;-62
2022/01/27 16:30:55;;;;;;;;;;;;;;;2.07;82.54;98130.72;4177784;28;5833;-62
2022/01/27 16:32:57;;;;;;;;;;;;;;;2.03;82.65;98129.22;4172422;28;5771;-61
2022/01/27 16:34:59;;;;;;;;;;;;;;;2.01;82.75;98131.97;4170532;28;5832;-62